sensor_id;sensor_type;location;lat;lon;timestamp;P1;durP1;ratioP1;P2;durP2;ratioP2
6145;SDS011;3104;50.348;7.620;2023-01-15T00:01:00;0.60;;;0.60;;
6145;SDS011;3104;50.348;7.620;2023-01-15T00:03:27;0.70;;;0.70;;
6145;SDS011;3104;50.348;7.620;2023-01-15T00:05:54;0.50;;;0.50;;
6145;SDS011;3104;50.348;7.620;2023-01-15T00:08:19;0.80;;;0.60;;
6145;SDS011;3104;50.348;7.620;2023-01-15T00:10:45;2.10;;;0.60;;
6145;SDS011;3104;50.348;7.620;2023-01-15T00:13:11;0.50;;;0.50;;
6145;SDS011;3104;50.348;7.620;2023-01-15T00:15:36;0.53;;;0.50;;
6145;SDS011;3104;50.348;7.620;2023-01-15T00:18:02;0.53;;;0.53;;
6145;SDS011;3104;50.348;7.620;2023-01-15T00:20:28;0.90;;;0.90;;
6145;SDS011;3104;50.348;7.620;2023-01-15T00:22:54;4.30;;;0.80;;
6145;SDS011;3104;50.348;7.620;2023-01-15T00:25:20;0.60;;;0.60;;
6145;SDS011;3104;50.348;7.620;2023-01-15T00:28:04;1.17;;;1.00;;
6145;SDS011;3104;50.348;7.620;2023-01-15T00:30:30;0.60;;;0.60;;
6145;SDS011;3104;50.348;7.620;2023-01-15T00:32:56;0.70;;;0.70;;
6145;SDS011;3104;50.348;7.620;2023-01-15T00:35:23;0.60;;;0.60;;
6145;SDS011;3104;50.348;7.620;2023-01-15T00:37:49;0.60;;;0.60;;
6145;SDS011;3104;50.348;7.620;2023-01-15T00:40:16;0.60;;;0.60;;
6145;SDS011;3104;50.348;7.620;2023-01-15T00:42:43;1.50;;;1.00;;
6145;SDS011;3104;50.348;7.620;2023-01-15T00:45:09;2.80;;;0.80;;
6145;SDS011;3104;50.348;7.620;2023-01-15T00:47:39;0.80;;;0.80;;
6145;SDS011;3104;50.348;7.620;2023-01-15T00:50:08;0.97;;;0.87;;
6145;SDS011;3104;50.348;7.620;2023-01-15T00:52:36;1.37;;;1.00;;
6145;SDS011;3104;50.348;7.620;2023-01-15T00:55:02;0.87;;;0.87;;
6145;SDS011;3104;50.348;7.620;2023-01-15T00:57:28;1.13;;;0.70;;
6145;SDS011;3104;50.348;7.620;2023-01-15T00:59:53;0.97;;;0.97;;
6145;SDS011;3104;50.348;7.620;2023-01-15T01:02:19;0.93;;;0.80;;
6145;SDS011;3104;50.348;7.620;2023-01-15T01:04:44;1.00;;;0.80;;
6145;SDS011;3104;50.348;7.620;2023-01-15T01:07:10;1.07;;;0.87;;
6145;SDS011;3104;50.348;7.620;2023-01-15T01:09:36;1.60;;;0.70;;
6145;SDS011;3104;50.348;7.620;2023-01-15T01:12:02;6.07;;;1.03;;
6145;SDS011;3104;50.348;7.620;2023-01-15T01:14:28;2.73;;;0.70;;
6145;SDS011;3104;50.348;7.620;2023-01-15T01:16:53;2.20;;;0.70;;
6145;SDS011;3104;50.348;7.620;2023-01-15T01:19:20;1.40;;;1.03;;
6145;SDS011;3104;50.348;7.620;2023-01-15T01:21:47;1.67;;;0.80;;
6145;SDS011;3104;50.348;7.620;2023-01-15T01:24:15;2.40;;;0.80;;
6145;SDS011;3104;50.348;7.620;2023-01-15T01:26:42;2.53;;;1.00;;
6145;SDS011;3104;50.348;7.620;2023-01-15T01:29:12;1.03;;;0.60;;
6145;SDS011;3104;50.348;7.620;2023-01-15T01:31:42;1.10;;;0.70;;
6145;SDS011;3104;50.348;7.620;2023-01-15T01:34:08;1.17;;;0.60;;
6145;SDS011;3104;50.348;7.620;2023-01-15T01:36:35;0.63;;;0.63;;
6145;SDS011;3104;50.348;7.620;2023-01-15T01:39:02;0.73;;;0.63;;
6145;SDS011;3104;50.348;7.620;2023-01-15T01:41:29;0.97;;;0.70;;
6145;SDS011;3104;50.348;7.620;2023-01-15T01:46:23;0.73;;;0.73;;
6145;SDS011;3104;50.348;7.620;2023-01-15T01:48:51;0.73;;;0.57;;
6145;SDS011;3104;50.348;7.620;2023-01-15T01:51:29;0.70;;;0.70;;
6145;SDS011;3104;50.348;7.620;2023-01-15T01:54:04;0.73;;;0.70;;
6145;SDS011;3104;50.348;7.620;2023-01-15T01:56:32;2.20;;;0.87;;
6145;SDS011;3104;50.348;7.620;2023-01-15T01:58:59;1.80;;;1.27;;
6145;SDS011;3104;50.348;7.620;2023-01-15T02:01:27;0.80;;;0.50;;
6145;SDS011;3104;50.348;7.620;2023-01-15T02:03:53;1.13;;;0.40;;
6145;SDS011;3104;50.348;7.620;2023-01-15T02:06:19;2.13;;;0.73;;
6145;SDS011;3104;50.348;7.620;2023-01-15T02:08:46;0.60;;;0.60;;
6145;SDS011;3104;50.348;7.620;2023-01-15T02:11:14;0.90;;;0.67;;
6145;SDS011;3104;50.348;7.620;2023-01-15T02:13:49;0.77;;;0.50;;
6145;SDS011;3104;50.348;7.620;2023-01-15T02:27:29;0.97;;;0.40;;
6145;SDS011;3104;50.348;7.620;2023-01-15T02:29:58;0.97;;;0.50;;
6145;SDS011;3104;50.348;7.620;2023-01-15T02:33:05;1.30;;;0.60;;
6145;SDS011;3104;50.348;7.620;2023-01-15T02:35:37;0.70;;;0.50;;
6145;SDS011;3104;50.348;7.620;2023-01-15T02:38:14;0.40;;;0.40;;
6145;SDS011;3104;50.348;7.620;2023-01-15T02:40:44;0.63;;;0.60;;
6145;SDS011;3104;50.348;7.620;2023-01-15T02:43:12;0.50;;;0.47;;
6145;SDS011;3104;50.348;7.620;2023-01-15T02:45:39;0.50;;;0.50;;
6145;SDS011;3104;50.348;7.620;2023-01-15T02:48:08;2.00;;;0.60;;
6145;SDS011;3104;50.348;7.620;2023-01-15T02:50:54;0.60;;;0.50;;
6145;SDS011;3104;50.348;7.620;2023-01-15T02:53:42;0.40;;;0.40;;
6145;SDS011;3104;50.348;7.620;2023-01-15T02:56:12;0.70;;;0.40;;
6145;SDS011;3104;50.348;7.620;2023-01-15T02:58:41;0.60;;;0.43;;
6145;SDS011;3104;50.348;7.620;2023-01-15T03:01:09;0.60;;;0.60;;
6145;SDS011;3104;50.348;7.620;2023-01-15T03:06:21;1.27;;;0.63;;
6145;SDS011;3104;50.348;7.620;2023-01-15T03:08:54;1.50;;;0.67;;
6145;SDS011;3104;50.348;7.620;2023-01-15T03:11:20;0.60;;;0.50;;
6145;SDS011;3104;50.348;7.620;2023-01-15T03:24:36;0.50;;;0.50;;
6145;SDS011;3104;50.348;7.620;2023-01-15T03:27:24;0.40;;;0.40;;
6145;SDS011;3104;50.348;7.620;2023-01-15T03:29:52;1.13;;;0.57;;
6145;SDS011;3104;50.348;7.620;2023-01-15T03:32:27;1.27;;;0.50;;
6145;SDS011;3104;50.348;7.620;2023-01-15T03:34:53;0.73;;;0.40;;
6145;SDS011;3104;50.348;7.620;2023-01-15T03:37:20;0.47;;;0.47;;
6145;SDS011;3104;50.348;7.620;2023-01-15T03:39:48;1.03;;;0.60;;
6145;SDS011;3104;50.348;7.620;2023-01-15T03:45:13;0.40;;;0.40;;
6145;SDS011;3104;50.348;7.620;2023-01-15T03:51:06;0.80;;;0.50;;
6145;SDS011;3104;50.348;7.620;2023-01-15T03:53:42;0.60;;;0.30;;
6145;SDS011;3104;50.348;7.620;2023-01-15T04:01:37;0.83;;;0.40;;
6145;SDS011;3104;50.348;7.620;2023-01-15T04:04:05;0.40;;;0.33;;
6145;SDS011;3104;50.348;7.620;2023-01-15T04:06:33;0.37;;;0.37;;
6145;SDS011;3104;50.348;7.620;2023-01-15T04:09:00;1.23;;;0.60;;
6145;SDS011;3104;50.348;7.620;2023-01-15T04:11:32;0.70;;;0.40;;
6145;SDS011;3104;50.348;7.620;2023-01-15T04:13:58;0.97;;;0.60;;
6145;SDS011;3104;50.348;7.620;2023-01-15T04:16:24;0.30;;;0.30;;
6145;SDS011;3104;50.348;7.620;2023-01-15T04:18:54;1.43;;;0.60;;
6145;SDS011;3104;50.348;7.620;2023-01-15T04:21:20;1.07;;;0.60;;
6145;SDS011;3104;50.348;7.620;2023-01-15T04:23:46;1.63;;;0.67;;
6145;SDS011;3104;50.348;7.620;2023-01-15T04:26:12;0.47;;;0.40;;
6145;SDS011;3104;50.348;7.620;2023-01-15T04:28:38;4.23;;;0.70;;
6145;SDS011;3104;50.348;7.620;2023-01-15T04:31:04;2.43;;;0.50;;
6145;SDS011;3104;50.348;7.620;2023-01-15T04:33:29;1.27;;;0.50;;
6145;SDS011;3104;50.348;7.620;2023-01-15T04:35:58;0.77;;;0.50;;
6145;SDS011;3104;50.348;7.620;2023-01-15T04:38:24;0.70;;;0.50;;
6145;SDS011;3104;50.348;7.620;2023-01-15T04:40:50;0.50;;;0.50;;
6145;SDS011;3104;50.348;7.620;2023-01-15T04:43:34;0.60;;;0.60;;
6145;SDS011;3104;50.348;7.620;2023-01-15T04:46:22;1.43;;;0.50;;
6145;SDS011;3104;50.348;7.620;2023-01-15T04:48:48;3.60;;;0.63;;
6145;SDS011;3104;50.348;7.620;2023-01-15T04:51:14;8.97;;;0.83;;
6145;SDS011;3104;50.348;7.620;2023-01-15T04:53:40;0.43;;;0.40;;
6145;SDS011;3104;50.348;7.620;2023-01-15T04:56:05;3.07;;;0.50;;
6145;SDS011;3104;50.348;7.620;2023-01-15T04:58:32;0.40;;;0.40;;
6145;SDS011;3104;50.348;7.620;2023-01-15T05:00:58;0.47;;;0.40;;
6145;SDS011;3104;50.348;7.620;2023-01-15T05:03:25;0.73;;;0.60;;
6145;SDS011;3104;50.348;7.620;2023-01-15T05:05:51;1.53;;;0.60;;
6145;SDS011;3104;50.348;7.620;2023-01-15T05:08:17;0.60;;;0.60;;
6145;SDS011;3104;50.348;7.620;2023-01-15T05:10:43;0.80;;;0.50;;
6145;SDS011;3104;50.348;7.620;2023-01-15T05:13:08;0.60;;;0.60;;
6145;SDS011;3104;50.348;7.620;2023-01-15T05:15:34;0.50;;;0.50;;
6145;SDS011;3104;50.348;7.620;2023-01-15T05:18:00;0.40;;;0.40;;
6145;SDS011;3104;50.348;7.620;2023-01-15T05:20:25;1.43;;;0.57;;
6145;SDS011;3104;50.348;7.620;2023-01-15T05:22:51;0.30;;;0.30;;
6145;SDS011;3104;50.348;7.620;2023-01-15T05:25:16;1.77;;;0.67;;
6145;SDS011;3104;50.348;7.620;2023-01-15T05:27:42;0.70;;;0.47;;
6145;SDS011;3104;50.348;7.620;2023-01-15T05:30:07;1.20;;;0.40;;
6145;SDS011;3104;50.348;7.620;2023-01-15T05:32:34;2.23;;;0.60;;
6145;SDS011;3104;50.348;7.620;2023-01-15T05:34:59;0.50;;;0.50;;
6145;SDS011;3104;50.348;7.620;2023-01-15T05:37:25;4.00;;;0.93;;
6145;SDS011;3104;50.348;7.620;2023-01-15T05:39:50;0.60;;;0.60;;
6145;SDS011;3104;50.348;7.620;2023-01-15T05:42:16;2.57;;;1.00;;
6145;SDS011;3104;50.348;7.620;2023-01-15T05:44:41;1.17;;;0.50;;
6145;SDS011;3104;50.348;7.620;2023-01-15T05:47:07;0.50;;;0.40;;
6145;SDS011;3104;50.348;7.620;2023-01-15T05:49:34;0.90;;;0.40;;
6145;SDS011;3104;50.348;7.620;2023-01-15T05:52:00;0.60;;;0.50;;
6145;SDS011;3104;50.348;7.620;2023-01-15T05:54:27;1.20;;;0.73;;
6145;SDS011;3104;50.348;7.620;2023-01-15T05:56:54;0.83;;;0.50;;
6145;SDS011;3104;50.348;7.620;2023-01-15T05:59:21;0.63;;;0.53;;
6145;SDS011;3104;50.348;7.620;2023-01-15T06:01:48;2.43;;;0.53;;
6145;SDS011;3104;50.348;7.620;2023-01-15T06:04:14;1.43;;;0.53;;
6145;SDS011;3104;50.348;7.620;2023-01-15T06:06:44;1.00;;;1.00;;
6145;SDS011;3104;50.348;7.620;2023-01-15T06:09:10;0.60;;;0.50;;
6145;SDS011;3104;50.348;7.620;2023-01-15T06:11:36;0.40;;;0.40;;
6145;SDS011;3104;50.348;7.620;2023-01-15T06:14:02;0.60;;;0.50;;
6145;SDS011;3104;50.348;7.620;2023-01-15T06:16:28;1.73;;;0.47;;
6145;SDS011;3104;50.348;7.620;2023-01-15T06:18:53;1.03;;;0.53;;
6145;SDS011;3104;50.348;7.620;2023-01-15T06:21:19;0.30;;;0.30;;
6145;SDS011;3104;50.348;7.620;2023-01-15T06:23:45;0.50;;;0.40;;
6145;SDS011;3104;50.348;7.620;2023-01-15T06:26:12;0.30;;;0.30;;
6145;SDS011;3104;50.348;7.620;2023-01-15T06:28:40;0.63;;;0.30;;
6145;SDS011;3104;50.348;7.620;2023-01-15T06:31:07;0.50;;;0.50;;
6145;SDS011;3104;50.348;7.620;2023-01-15T06:33:34;0.30;;;0.30;;
6145;SDS011;3104;50.348;7.620;2023-01-15T06:36:07;0.97;;;0.50;;
6145;SDS011;3104;50.348;7.620;2023-01-15T06:38:35;0.30;;;0.30;;
6145;SDS011;3104;50.348;7.620;2023-01-15T06:41:01;0.40;;;0.40;;
6145;SDS011;3104;50.348;7.620;2023-01-15T06:43:28;0.30;;;0.30;;
6145;SDS011;3104;50.348;7.620;2023-01-15T06:46:12;0.67;;;0.50;;
6145;SDS011;3104;50.348;7.620;2023-01-15T06:48:58;1.07;;;0.40;;
6145;SDS011;3104;50.348;7.620;2023-01-15T06:51:24;0.73;;;0.33;;
6145;SDS011;3104;50.348;7.620;2023-01-15T06:53:49;0.33;;;0.33;;
6145;SDS011;3104;50.348;7.620;2023-01-15T06:56:15;0.53;;;0.33;;
6145;SDS011;3104;50.348;7.620;2023-01-15T06:58:41;0.30;;;0.30;;
6145;SDS011;3104;50.348;7.620;2023-01-15T07:01:10;0.30;;;0.30;;
6145;SDS011;3104;50.348;7.620;2023-01-15T07:03:37;0.37;;;0.37;;
6145;SDS011;3104;50.348;7.620;2023-01-15T07:06:07;0.60;;;0.40;;
6145;SDS011;3104;50.348;7.620;2023-01-15T07:08:34;0.37;;;0.37;;
6145;SDS011;3104;50.348;7.620;2023-01-15T07:11:07;0.50;;;0.40;;
6145;SDS011;3104;50.348;7.620;2023-01-15T07:13:33;0.30;;;0.30;;
6145;SDS011;3104;50.348;7.620;2023-01-15T07:16:00;0.43;;;0.30;;
6145;SDS011;3104;50.348;7.620;2023-01-15T07:18:28;0.30;;;0.30;;
6145;SDS011;3104;50.348;7.620;2023-01-15T07:20:55;0.30;;;0.30;;
6145;SDS011;3104;50.348;7.620;2023-01-15T07:23:22;0.87;;;0.50;;
6145;SDS011;3104;50.348;7.620;2023-01-15T07:25:48;0.30;;;0.30;;
6145;SDS011;3104;50.348;7.620;2023-01-15T07:28:15;1.40;;;0.40;;
6145;SDS011;3104;50.348;7.620;2023-01-15T07:30:41;0.53;;;0.40;;
6145;SDS011;3104;50.348;7.620;2023-01-15T07:33:06;0.50;;;0.50;;
6145;SDS011;3104;50.348;7.620;2023-01-15T07:35:32;0.30;;;0.30;;
6145;SDS011;3104;50.348;7.620;2023-01-15T07:38:00;0.30;;;0.30;;
6145;SDS011;3104;50.348;7.620;2023-01-15T07:40:26;0.40;;;0.40;;
6145;SDS011;3104;50.348;7.620;2023-01-15T07:42:52;0.30;;;0.30;;
6145;SDS011;3104;50.348;7.620;2023-01-15T07:45:37;0.30;;;0.30;;
6145;SDS011;3104;50.348;7.620;2023-01-15T07:48:23;1.23;;;0.40;;
6145;SDS011;3104;50.348;7.620;2023-01-15T07:51:25;0.50;;;0.50;;
6145;SDS011;3104;50.348;7.620;2023-01-15T07:53:51;1.87;;;0.67;;
6145;SDS011;3104;50.348;7.620;2023-01-15T07:56:16;1.00;;;0.60;;
6145;SDS011;3104;50.348;7.620;2023-01-15T07:58:42;2.20;;;0.60;;
6145;SDS011;3104;50.348;7.620;2023-01-15T08:01:13;3.70;;;0.40;;
6145;SDS011;3104;50.348;7.620;2023-01-15T08:03:38;0.40;;;0.40;;
6145;SDS011;3104;50.348;7.620;2023-01-15T08:06:04;0.40;;;0.40;;
6145;SDS011;3104;50.348;7.620;2023-01-15T08:08:29;0.33;;;0.33;;
6145;SDS011;3104;50.348;7.620;2023-01-15T08:10:59;0.93;;;0.37;;
6145;SDS011;3104;50.348;7.620;2023-01-15T08:13:43;0.40;;;0.40;;
6145;SDS011;3104;50.348;7.620;2023-01-15T08:16:27;1.00;;;0.50;;
6145;SDS011;3104;50.348;7.620;2023-01-15T08:18:53;1.70;;;0.50;;
6145;SDS011;3104;50.348;7.620;2023-01-15T08:21:18;0.50;;;0.50;;
6145;SDS011;3104;50.348;7.620;2023-01-15T08:23:45;0.43;;;0.43;;
6145;SDS011;3104;50.348;7.620;2023-01-15T08:26:11;0.50;;;0.50;;
6145;SDS011;3104;50.348;7.620;2023-01-15T08:28:37;0.60;;;0.50;;
6145;SDS011;3104;50.348;7.620;2023-01-15T08:31:04;0.97;;;0.57;;
6145;SDS011;3104;50.348;7.620;2023-01-15T08:33:30;1.50;;;0.47;;
6145;SDS011;3104;50.348;7.620;2023-01-15T08:35:57;0.33;;;0.33;;
6145;SDS011;3104;50.348;7.620;2023-01-15T08:38:22;2.93;;;0.80;;
6145;SDS011;3104;50.348;7.620;2023-01-15T08:40:51;0.83;;;0.40;;
6145;SDS011;3104;50.348;7.620;2023-01-15T08:43:27;0.90;;;0.53;;
6145;SDS011;3104;50.348;7.620;2023-01-15T08:45:55;0.60;;;0.50;;
6145;SDS011;3104;50.348;7.620;2023-01-15T08:48:22;0.57;;;0.53;;
6145;SDS011;3104;50.348;7.620;2023-01-15T08:50:48;0.50;;;0.50;;
6145;SDS011;3104;50.348;7.620;2023-01-15T08:53:14;2.00;;;0.53;;
6145;SDS011;3104;50.348;7.620;2023-01-15T08:55:40;0.47;;;0.47;;
6145;SDS011;3104;50.348;7.620;2023-01-15T08:58:06;1.50;;;0.43;;
6145;SDS011;3104;50.348;7.620;2023-01-15T09:00:31;1.57;;;0.57;;
6145;SDS011;3104;50.348;7.620;2023-01-15T09:02:58;1.20;;;0.67;;
6145;SDS011;3104;50.348;7.620;2023-01-15T09:05:23;1.50;;;0.50;;
6145;SDS011;3104;50.348;7.620;2023-01-15T09:07:52;0.60;;;0.50;;
6145;SDS011;3104;50.348;7.620;2023-01-15T09:10:17;0.40;;;0.40;;
6145;SDS011;3104;50.348;7.620;2023-01-15T09:12:43;1.10;;;0.43;;
6145;SDS011;3104;50.348;7.620;2023-01-15T09:15:09;0.63;;;0.57;;
6145;SDS011;3104;50.348;7.620;2023-01-15T09:17:34;0.97;;;0.50;;
6145;SDS011;3104;50.348;7.620;2023-01-15T09:20:04;2.10;;;0.40;;
6145;SDS011;3104;50.348;7.620;2023-01-15T09:22:31;0.60;;;0.40;;
6145;SDS011;3104;50.348;7.620;2023-01-15T09:24:57;1.30;;;0.60;;
6145;SDS011;3104;50.348;7.620;2023-01-15T09:27:23;1.67;;;0.47;;
6145;SDS011;3104;50.348;7.620;2023-01-15T09:29:49;0.47;;;0.47;;
6145;SDS011;3104;50.348;7.620;2023-01-15T09:32:14;2.47;;;0.40;;
6145;SDS011;3104;50.348;7.620;2023-01-15T09:34:40;2.90;;;0.60;;
6145;SDS011;3104;50.348;7.620;2023-01-15T09:37:05;1.37;;;0.60;;
6145;SDS011;3104;50.348;7.620;2023-01-15T09:39:31;0.70;;;0.60;;
6145;SDS011;3104;50.348;7.620;2023-01-15T09:47:13;0.60;;;0.53;;
6145;SDS011;3104;50.348;7.620;2023-01-15T09:55:21;2.40;;;1.07;;
6145;SDS011;3104;50.348;7.620;2023-01-15T09:57:53;1.33;;;0.63;;
6145;SDS011;3104;50.348;7.620;2023-01-15T10:00:22;0.60;;;0.53;;
6145;SDS011;3104;50.348;7.620;2023-01-15T10:05:35;1.40;;;0.77;;
6145;SDS011;3104;50.348;7.620;2023-01-15T10:08:19;0.50;;;0.40;;
6145;SDS011;3104;50.348;7.620;2023-01-15T10:10:54;3.23;;;1.00;;
6145;SDS011;3104;50.348;7.620;2023-01-15T10:16:10;1.00;;;0.80;;
6145;SDS011;3104;50.348;7.620;2023-01-15T10:18:37;0.80;;;0.80;;
6145;SDS011;3104;50.348;7.620;2023-01-15T10:29:05;1.07;;;0.63;;
6145;SDS011;3104;50.348;7.620;2023-01-15T10:31:44;2.80;;;0.70;;
6145;SDS011;3104;50.348;7.620;2023-01-15T10:34:29;0.60;;;0.57;;
6145;SDS011;3104;50.348;7.620;2023-01-15T10:37:17;2.50;;;0.80;;
6145;SDS011;3104;50.348;7.620;2023-01-15T10:45:56;2.83;;;0.90;;
6145;SDS011;3104;50.348;7.620;2023-01-15T10:51:03;1.73;;;0.70;;
6145;SDS011;3104;50.348;7.620;2023-01-15T10:54:06;2.00;;;1.17;;
6145;SDS011;3104;50.348;7.620;2023-01-15T10:56:59;2.43;;;0.90;;
6145;SDS011;3104;50.348;7.620;2023-01-15T11:04:55;3.90;;;1.00;;
6145;SDS011;3104;50.348;7.620;2023-01-15T11:07:21;2.70;;;0.60;;
6145;SDS011;3104;50.348;7.620;2023-01-15T11:09:53;6.03;;;0.90;;
6145;SDS011;3104;50.348;7.620;2023-01-15T11:12:24;0.80;;;0.77;;
6145;SDS011;3104;50.348;7.620;2023-01-15T11:15:15;2.70;;;0.93;;
6145;SDS011;3104;50.348;7.620;2023-01-15T11:18:06;0.53;;;0.53;;
6145;SDS011;3104;50.348;7.620;2023-01-15T11:20:56;1.40;;;0.53;;
6145;SDS011;3104;50.348;7.620;2023-01-15T11:23:22;0.93;;;0.50;;
6145;SDS011;3104;50.348;7.620;2023-01-15T11:25:52;1.40;;;0.93;;
6145;SDS011;3104;50.348;7.620;2023-01-15T11:28:34;0.50;;;0.50;;
6145;SDS011;3104;50.348;7.620;2023-01-15T11:31:04;1.77;;;0.70;;
6145;SDS011;3104;50.348;7.620;2023-01-15T11:33:31;0.87;;;0.73;;
6145;SDS011;3104;50.348;7.620;2023-01-15T11:36:02;3.43;;;1.40;;
6145;SDS011;3104;50.348;7.620;2023-01-15T11:38:45;1.37;;;0.87;;
6145;SDS011;3104;50.348;7.620;2023-01-15T11:41:22;1.17;;;0.80;;
6145;SDS011;3104;50.348;7.620;2023-01-15T11:44:33;4.70;;;1.57;;
6145;SDS011;3104;50.348;7.620;2023-01-15T11:47:17;1.90;;;1.80;;
6145;SDS011;3104;50.348;7.620;2023-01-15T11:50:12;2.67;;;1.00;;
6145;SDS011;3104;50.348;7.620;2023-01-15T11:52:59;2.93;;;0.90;;
6145;SDS011;3104;50.348;7.620;2023-01-15T11:55:25;1.97;;;1.40;;
6145;SDS011;3104;50.348;7.620;2023-01-15T11:57:52;4.70;;;0.90;;
6145;SDS011;3104;50.348;7.620;2023-01-15T12:00:23;2.73;;;0.80;;
6145;SDS011;3104;50.348;7.620;2023-01-15T12:02:51;4.87;;;0.90;;
6145;SDS011;3104;50.348;7.620;2023-01-15T12:05:25;1.17;;;1.00;;
6145;SDS011;3104;50.348;7.620;2023-01-15T12:07:54;0.80;;;0.70;;
6145;SDS011;3104;50.348;7.620;2023-01-15T12:13:37;1.60;;;0.70;;
6145;SDS011;3104;50.348;7.620;2023-01-15T12:33:45;0.90;;;0.90;;
6145;SDS011;3104;50.348;7.620;2023-01-15T12:39:17;1.37;;;1.10;;
6145;SDS011;3104;50.348;7.620;2023-01-15T12:41:44;2.00;;;0.80;;
6145;SDS011;3104;50.348;7.620;2023-01-15T12:47:27;0.87;;;0.87;;
6145;SDS011;3104;50.348;7.620;2023-01-15T12:53:23;1.47;;;0.80;;
6145;SDS011;3104;50.348;7.620;2023-01-15T12:56:13;0.67;;;0.57;;
6145;SDS011;3104;50.348;7.620;2023-01-15T13:02:03;3.20;;;0.90;;
6145;SDS011;3104;50.348;7.620;2023-01-15T13:04:48;1.63;;;0.80;;
6145;SDS011;3104;50.348;7.620;2023-01-15T13:07:32;2.17;;;0.90;;
6145;SDS011;3104;50.348;7.620;2023-01-15T13:12:58;2.00;;;0.80;;
6145;SDS011;3104;50.348;7.620;2023-01-15T13:15:43;0.83;;;0.83;;
6145;SDS011;3104;50.348;7.620;2023-01-15T13:18:43;1.07;;;0.80;;
6145;SDS011;3104;50.348;7.620;2023-01-15T13:21:21;4.70;;;1.27;;
6145;SDS011;3104;50.348;7.620;2023-01-15T13:26:33;0.70;;;0.70;;
6145;SDS011;3104;50.348;7.620;2023-01-15T13:29:20;2.57;;;1.10;;
6145;SDS011;3104;50.348;7.620;2023-01-15T13:32:09;4.40;;;1.90;;
6145;SDS011;3104;50.348;7.620;2023-01-15T13:37:42;2.63;;;0.83;;
6145;SDS011;3104;50.348;7.620;2023-01-15T13:42:43;2.40;;;1.10;;
6145;SDS011;3104;50.348;7.620;2023-01-15T13:48:01;1.60;;;1.00;;
6145;SDS011;3104;50.348;7.620;2023-01-15T13:50:42;1.80;;;0.93;;
6145;SDS011;3104;50.348;7.620;2023-01-15T13:55:51;5.20;;;1.20;;
6145;SDS011;3104;50.348;7.620;2023-01-15T13:58:27;1.80;;;1.00;;
6145;SDS011;3104;50.348;7.620;2023-01-15T14:01:05;1.10;;;0.60;;
6145;SDS011;3104;50.348;7.620;2023-01-15T14:09:12;1.70;;;0.87;;
6145;SDS011;3104;50.348;7.620;2023-01-15T14:11:43;3.40;;;1.30;;
6145;SDS011;3104;50.348;7.620;2023-01-15T14:19:40;1.70;;;1.00;;
6145;SDS011;3104;50.348;7.620;2023-01-15T14:31:00;1.70;;;1.00;;
6145;SDS011;3104;50.348;7.620;2023-01-15T14:33:45;2.33;;;0.80;;
6145;SDS011;3104;50.348;7.620;2023-01-15T14:36:28;2.53;;;1.00;;
6145;SDS011;3104;50.348;7.620;2023-01-15T14:38:58;2.63;;;1.20;;
6145;SDS011;3104;50.348;7.620;2023-01-15T14:41:26;1.80;;;0.60;;
6145;SDS011;3104;50.348;7.620;2023-01-15T14:43:55;2.20;;;1.00;;
6145;SDS011;3104;50.348;7.620;2023-01-15T14:48:55;5.00;;;0.80;;
6145;SDS011;3104;50.348;7.620;2023-01-15T14:51:30;2.67;;;0.77;;
6145;SDS011;3104;50.348;7.620;2023-01-15T14:54:08;2.37;;;1.30;;
6145;SDS011;3104;50.348;7.620;2023-01-15T14:56:40;2.67;;;1.10;;
6145;SDS011;3104;50.348;7.620;2023-01-15T14:59:15;5.40;;;0.83;;
6145;SDS011;3104;50.348;7.620;2023-01-15T15:01:57;2.50;;;2.27;;
6145;SDS011;3104;50.348;7.620;2023-01-15T15:04:39;1.90;;;1.07;;
6145;SDS011;3104;50.348;7.620;2023-01-15T15:07:18;3.30;;;1.00;;
6145;SDS011;3104;50.348;7.620;2023-01-15T15:21:25;5.40;;;1.00;;
6145;SDS011;3104;50.348;7.620;2023-01-15T15:24:10;0.97;;;0.83;;
6145;SDS011;3104;50.348;7.620;2023-01-15T15:26:40;3.37;;;1.37;;
6145;SDS011;3104;50.348;7.620;2023-01-15T15:29:16;2.77;;;0.80;;
6145;SDS011;3104;50.348;7.620;2023-01-15T15:34:30;2.93;;;1.47;;
6145;SDS011;3104;50.348;7.620;2023-01-15T15:37:01;1.57;;;0.90;;
6145;SDS011;3104;50.348;7.620;2023-01-15T15:39:44;2.53;;;0.80;;
6145;SDS011;3104;50.348;7.620;2023-01-15T15:42:18;2.83;;;1.00;;
6145;SDS011;3104;50.348;7.620;2023-01-15T15:45:19;2.00;;;1.20;;
6145;SDS011;3104;50.348;7.620;2023-01-15T15:48:15;3.57;;;1.10;;
6145;SDS011;3104;50.348;7.620;2023-01-15T15:51:02;2.90;;;0.90;;
6145;SDS011;3104;50.348;7.620;2023-01-15T15:53:29;1.53;;;0.73;;
6145;SDS011;3104;50.348;7.620;2023-01-15T15:55:54;3.20;;;1.30;;
6145;SDS011;3104;50.348;7.620;2023-01-15T15:58:32;1.83;;;1.07;;
6145;SDS011;3104;50.348;7.620;2023-01-15T16:01:00;2.10;;;0.77;;
6145;SDS011;3104;50.348;7.620;2023-01-15T16:03:27;2.40;;;0.93;;
6145;SDS011;3104;50.348;7.620;2023-01-15T16:05:55;2.13;;;1.40;;
6145;SDS011;3104;50.348;7.620;2023-01-15T16:08:29;2.20;;;1.03;;
6145;SDS011;3104;50.348;7.620;2023-01-15T16:10:57;1.93;;;1.63;;
6145;SDS011;3104;50.348;7.620;2023-01-15T16:13:26;1.47;;;0.93;;
6145;SDS011;3104;50.348;7.620;2023-01-15T16:15:56;1.40;;;1.00;;
6145;SDS011;3104;50.348;7.620;2023-01-15T16:18:27;2.53;;;1.00;;
6145;SDS011;3104;50.348;7.620;2023-01-15T16:20:56;2.30;;;1.20;;
6145;SDS011;3104;50.348;7.620;2023-01-15T16:23:23;1.00;;;0.83;;
6145;SDS011;3104;50.348;7.620;2023-01-15T16:28:45;1.80;;;0.83;;
6145;SDS011;3104;50.348;7.620;2023-01-15T16:31:20;4.37;;;1.27;;
6145;SDS011;3104;50.348;7.620;2023-01-15T16:33:47;4.03;;;1.30;;
6145;SDS011;3104;50.348;7.620;2023-01-15T16:36:20;2.27;;;1.00;;
6145;SDS011;3104;50.348;7.620;2023-01-15T16:38:46;3.60;;;1.17;;
6145;SDS011;3104;50.348;7.620;2023-01-15T16:41:18;1.10;;;1.00;;
6145;SDS011;3104;50.348;7.620;2023-01-15T16:43:55;1.17;;;0.90;;
6145;SDS011;3104;50.348;7.620;2023-01-15T16:46:24;2.87;;;0.90;;
6145;SDS011;3104;50.348;7.620;2023-01-15T16:51:46;1.50;;;1.00;;
6145;SDS011;3104;50.348;7.620;2023-01-15T16:56:53;1.43;;;0.90;;
6145;SDS011;3104;50.348;7.620;2023-01-15T17:01:51;1.37;;;1.27;;
6145;SDS011;3104;50.348;7.620;2023-01-15T17:09:41;1.53;;;1.30;;
6145;SDS011;3104;50.348;7.620;2023-01-15T17:14:52;4.70;;;1.67;;
6145;SDS011;3104;50.348;7.620;2023-01-15T17:19:47;1.20;;;1.10;;
6145;SDS011;3104;50.348;7.620;2023-01-15T17:22:21;3.33;;;1.50;;
6145;SDS011;3104;50.348;7.620;2023-01-15T17:24:48;3.70;;;1.20;;
6145;SDS011;3104;50.348;7.620;2023-01-15T17:27:15;1.50;;;1.00;;
6145;SDS011;3104;50.348;7.620;2023-01-15T17:29:40;1.57;;;1.30;;
6145;SDS011;3104;50.348;7.620;2023-01-15T17:32:09;3.07;;;1.53;;
6145;SDS011;3104;50.348;7.620;2023-01-15T17:34:38;4.57;;;1.53;;
6145;SDS011;3104;50.348;7.620;2023-01-15T17:37:04;3.47;;;2.20;;
6145;SDS011;3104;50.348;7.620;2023-01-15T17:39:29;1.73;;;1.50;;
6145;SDS011;3104;50.348;7.620;2023-01-15T17:41:55;4.13;;;1.57;;
6145;SDS011;3104;50.348;7.620;2023-01-15T17:44:21;1.80;;;1.43;;
6145;SDS011;3104;50.348;7.620;2023-01-15T17:46:46;5.80;;;1.57;;
6145;SDS011;3104;50.348;7.620;2023-01-15T17:49:13;1.07;;;0.80;;
6145;SDS011;3104;50.348;7.620;2023-01-15T17:51:38;2.53;;;0.87;;
6145;SDS011;3104;50.348;7.620;2023-01-15T17:54:04;1.40;;;1.20;;
6145;SDS011;3104;50.348;7.620;2023-01-15T17:56:30;0.87;;;0.80;;
6145;SDS011;3104;50.348;7.620;2023-01-15T17:59:14;3.40;;;1.30;;
6145;SDS011;3104;50.348;7.620;2023-01-15T18:01:58;0.83;;;0.70;;
6145;SDS011;3104;50.348;7.620;2023-01-15T18:04:47;1.43;;;0.90;;
6145;SDS011;3104;50.348;7.620;2023-01-15T18:07:35;1.83;;;1.00;;
6145;SDS011;3104;50.348;7.620;2023-01-15T18:10:05;2.00;;;0.97;;
6145;SDS011;3104;50.348;7.620;2023-01-15T18:12:32;1.63;;;0.80;;
6145;SDS011;3104;50.348;7.620;2023-01-15T18:14:58;1.20;;;1.10;;
6145;SDS011;3104;50.348;7.620;2023-01-15T18:17:23;2.57;;;0.80;;
6145;SDS011;3104;50.348;7.620;2023-01-15T18:19:49;4.17;;;1.20;;
6145;SDS011;3104;50.348;7.620;2023-01-15T18:22:14;1.23;;;1.17;;
6145;SDS011;3104;50.348;7.620;2023-01-15T18:24:41;1.57;;;1.03;;
6145;SDS011;3104;50.348;7.620;2023-01-15T18:27:06;1.73;;;0.97;;
6145;SDS011;3104;50.348;7.620;2023-01-15T18:29:32;2.27;;;1.33;;
6145;SDS011;3104;50.348;7.620;2023-01-15T18:32:02;3.87;;;2.70;;
6145;SDS011;3104;50.348;7.620;2023-01-15T18:34:28;2.63;;;1.40;;
6145;SDS011;3104;50.348;7.620;2023-01-15T18:36:54;3.63;;;1.37;;
6145;SDS011;3104;50.348;7.620;2023-01-15T18:39:19;3.60;;;1.27;;
6145;SDS011;3104;50.348;7.620;2023-01-15T18:41:45;4.23;;;1.30;;